Time;durP1;ratioP1;P1;durP2;ratioP2;P2;SDS_P1;SDS_P2;PMS_P1;PMS_P2;Temp;Humidity;BMP_temperature;BMP_pressure;BME280_temperature;BME280_humidity;BME280_pressure;Samples;Min_cycle;Max_cycle;Signal;HPM_P1;HPM_P2
2021/07/02 00:00:13;;;;;;;1.63;0.70;;;;;;;;;;5088385;28;20071;-56
2021/07/02 00:02:40;;;;;;;0.80;0.65;;;;;;;;;;5089695;28;20687;-56
2021/07/02 00:05:07;;;;;;;0.68;0.68;;;;;;;;;;5087261;28;20114;-56
2021/07/02 00:07:34;;;;;;;1.02;0.70;;;;;;;;;;5079302;28;20437;-56
2021/07/02 00:10:01;;;;;;;0.70;0.70;;;;;;;;;;5091563;28;20097;-53
2021/07/02 00:12:28;;;;;;;1.33;0.70;;;;;;;;;;5091865;28;20091;-57
2021/07/02 00:14:54;;;;;;;0.70;0.70;;;;;;;;;;5092317;28;20115;-55
2021/07/02 00:17:21;;;;;;;1.38;0.70;;;;;;;;;;5073742;28;20044;-56
2021/07/02 00:19:48;;;;;;;0.73;0.73;;;;;;;;;;5094088;28;20036;-56
2021/07/02 00:22:15;;;;;;;1.42;0.60;;;;;;;;;;5094373;28;20432;-57
2021/07/02 00:24:42;;;;;;;3.33;1.33;;;;;;;;;;5098829;28;20040;-57
2021/07/02 00:27:08;;;;;;;1.05;0.75;;;;;;;;;;5079509;28;20044;-56
2021/07/02 00:29:35;;;;;;;0.70;0.70;;;;;;;;;;5091290;28;20380;-57
2021/07/02 00:32:02;;;;;;;1.10;0.70;;;;;;;;;;5091825;28;20383;-55
2021/07/02 00:34:29;;;;;;;1.27;0.70;;;;;;;;;;5093748;28;20074;-56
2021/07/02 00:36:55;;;;;;;1.40;0.68;;;;;;;;;;5092715;28;20159;-57
2021/07/02 00:39:22;;;;;;;0.60;0.60;;;;;;;;;;5075692;28;20044;-57
2021/07/02 00:41:49;;;;;;;0.77;0.70;;;;;;;;;;5092297;28;20119;-54
2021/07/02 00:44:16;;;;;;;0.60;0.60;;;;;;;;;;5091742;28;20055;-56
2021/07/02 00:46:42;;;;;;;0.77;0.70;;;;;;;;;;5093692;28;20044;-57
2021/07/02 00:49:10;;;;;;;0.70;0.70;;;;;;;;;;5090998;28;20048;-57
2021/07/02 00:51:37;;;;;;;0.70;0.70;;;;;;;;;;5087562;28;20024;-56
2021/07/02 00:54:03;;;;;;;0.73;0.70;;;;;;;;;;5093354;28;20040;-57
2021/07/02 00:56:30;;;;;;;0.90;0.70;;;;;;;;;;5080574;28;20798;-56
2021/07/02 00:58:57;;;;;;;1.30;0.70;;;;;;;;;;5091766;28;20040;-56
2021/07/02 01:01:24;;;;;;;1.40;0.70;;;;;;;;;;5090353;28;20040;-57
2021/07/02 01:03:51;;;;;;;1.13;1.08;;;;;;;;;;5072264;28;20618;-56
2021/07/02 01:06:19;;;;;;;2.28;0.70;;;;;;;;;;5092853;28;20097;-56
2021/07/02 01:08:45;;;;;;;1.15;0.70;;;;;;;;;;5089282;28;20046;-50
2021/07/02 01:11:13;;;;;;;1.40;0.80;;;;;;;;;;5093466;28;20136;-57
2021/07/02 01:13:40;;;;;;;0.70;0.70;;;;;;;;;;5089890;28;20051;-56
2021/07/02 01:16:07;;;;;;;1.17;0.70;;;;;;;;;;5090620;28;20070;-57
2021/07/02 01:18:33;;;;;;;0.70;0.70;;;;;;;;;;5092724;28;20548;-57
2021/07/02 01:21:00;;;;;;;0.60;0.60;;;;;;;;;;5087312;28;20460;-55
2021/07/02 01:23:27;;;;;;;0.70;0.70;;;;;;;;;;5093279;28;20046;-55
2021/07/02 01:25:54;;;;;;;2.80;0.70;;;;;;;;;;5091277;28;20068;-57
2021/07/02 01:28:20;;;;;;;1.88;0.80;;;;;;;;;;5077475;28;20060;-57
2021/07/02 01:30:47;;;;;;;1.40;0.70;;;;;;;;;;5086976;28;20035;-56
2021/07/02 01:33:16;;;;;;;1.00;0.90;;;;;;;;;;5091367;28;20122;-56
2021/07/02 01:35:42;;;;;;;1.38;0.70;;;;;;;;;;5080194;28;20492;-57
2021/07/02 01:38:09;;;;;;;1.63;0.70;;;;;;;;;;5092707;28;20028;-57
2021/07/02 01:40:36;;;;;;;0.93;0.75;;;;;;;;;;5092896;28;20525;-56
2021/07/02 01:43:03;;;;;;;1.25;0.70;;;;;;;;;;5092203;28;20507;-54
2021/07/02 01:45:30;;;;;;;0.88;0.80;;;;;;;;;;5091441;28;20051;-57
2021/07/02 01:47:57;;;;;;;0.98;0.80;;;;;;;;;;5067486;28;20059;-55
2021/07/02 01:50:25;;;;;;;2.90;0.80;;;;;;;;;;5089635;28;20075;-57
2021/07/02 01:52:53;;;;;;;0.70;0.70;;;;;;;;;;5091190;28;20097;-56
2021/07/02 01:55:20;;;;;;;0.88;0.80;;;;;;;;;;5086921;28;20091;-57
2021/07/02 01:57:47;;;;;;;3.10;0.80;;;;;;;;;;5086150;28;20401;-57
2021/07/02 02:00:14;;;;;;;0.90;0.90;;;;;;;;;;5090371;28;20101;-56
2021/07/02 02:02:41;;;;;;;0.80;0.80;;;;;;;;;;5090123;28;20098;-57
2021/07/02 02:05:08;;;;;;;2.25;0.80;;;;;;;;;;5090543;28;20048;-57
2021/07/02 02:07:35;;;;;;;0.80;0.80;;;;;;;;;;5090650;28;20040;-57
2021/07/02 02:10:02;;;;;;;2.03;0.73;;;;;;;;;;5089597;28;20082;-56
2021/07/02 02:12:28;;;;;;;1.95;0.98;;;;;;;;;;5089928;28;20060;-56
2021/07/02 02:14:56;;;;;;;0.80;0.80;;;;;;;;;;5083771;28;20037;-57
2021/07/02 02:17:23;;;;;;;1.40;0.85;;;;;;;;;;5089686;28;20672;-55
2021/07/02 02:19:50;;;;;;;0.73;0.73;;;;;;;;;;5090029;28;20121;-57
2021/07/02 02:22:17;;;;;;;0.73;0.73;;;;;;;;;;5089866;28;20086;-57
2021/07/02 02:24:43;;;;;;;1.10;0.80;;;;;;;;;;5086316;28;20075;-56
2021/07/02 02:27:10;;;;;;;0.70;0.70;;;;;;;;;;5091300;28;20040;-56
2021/07/02 02:29:37;;;;;;;0.80;0.80;;;;;;;;;;5088819;28;20047;-56
2021/07/02 02:32:04;;;;;;;1.00;0.70;;;;;;;;;;5089206;28;20124;-56
2021/07/02 02:34:30;;;;;;;4.10;1.05;;;;;;;;;;5090094;28;20048;-56
2021/07/02 02:36:57;;;;;;;0.85;0.85;;;;;;;;;;5090198;28;20040;-57
2021/07/02 02:39:24;;;;;;;1.95;0.70;;;;;;;;;;5089727;28;20047;-57
2021/07/02 02:41:51;;;;;;;2.70;0.70;;;;;;;;;;5092522;28;20152;-57
2021/07/02 02:44:18;;;;;;;1.58;0.80;;;;;;;;;;5086023;28;20119;-53
2021/07/02 02:46:44;;;;;;;1.48;1.00;;;;;;;;;;5086136;28;20044;-57
2021/07/02 02:49:11;;;;;;;0.80;0.80;;;;;;;;;;5075876;28;20055;-57
2021/07/02 02:51:38;;;;;;;1.58;0.80;;;;;;;;;;5092467;28;20476;-56
2021/07/02 02:54:05;;;;;;;0.88;0.80;;;;;;;;;;5087947;28;20066;-56
2021/07/02 02:56:32;;;;;;;0.95;0.80;;;;;;;;;;5081324;28;20111;-57
2021/07/02 02:58:59;;;;;;;2.95;1.80;;;;;;;;;;5088622;28;20056;-55
2021/07/02 03:01:25;;;;;;;1.45;0.80;;;;;;;;;;5087961;28;20046;-56
2021/07/02 03:03:52;;;;;;;1.80;0.85;;;;;;;;;;5092314;28;20454;-56
2021/07/02 03:06:19;;;;;;;1.02;0.70;;;;;;;;;;5089455;28;20466;-57
2021/07/02 03:08:46;;;;;;;0.70;0.70;;;;;;;;;;5089595;28;20077;-56
2021/07/02 03:11:13;;;;;;;4.03;0.95;;;;;;;;;;5090813;28;20479;-57
2021/07/02 03:13:39;;;;;;;1.48;0.80;;;;;;;;;;5089752;28;20097;-57
2021/07/02 03:16:06;;;;;;;0.80;0.80;;;;;;;;;;5089186;28;20068;-57
2021/07/02 03:18:33;;;;;;;1.75;0.70;;;;;;;;;;5088384;28;20036;-57
2021/07/02 03:21:00;;;;;;;1.67;0.80;;;;;;;;;;5088741;28;20563;-56
2021/07/02 03:23:27;;;;;;;0.93;0.80;;;;;;;;;;5089710;28;20067;-57
2021/07/02 03:25:53;;;;;;;2.20;0.80;;;;;;;;;;5088212;28;20093;-57
2021/07/02 03:28:20;;;;;;;0.85;0.80;;;;;;;;;;5085159;28;20040;-56
2021/07/02 03:30:47;;;;;;;1.65;0.80;;;;;;;;;;5090501;28;20422;-56
2021/07/02 03:33:13;;;;;;;0.80;0.80;;;;;;;;;;5087258;28;20408;-57
2021/07/02 03:35:40;;;;;;;0.80;0.80;;;;;;;;;;5091375;28;20044;-57
2021/07/02 03:38:07;;;;;;;1.05;1.05;;;;;;;;;;5087841;28;20024;-57
2021/07/02 03:40:34;;;;;;;0.93;0.90;;;;;;;;;;5090110;28;20455;-57
2021/07/02 03:43:00;;;;;;;0.75;0.75;;;;;;;;;;5088305;28;20527;-56
2021/07/02 03:45:27;;;;;;;2.00;0.80;;;;;;;;;;5090616;28;20063;-57
2021/07/02 03:47:54;;;;;;;1.40;1.30;;;;;;;;;;5093427;28;20120;-57
2021/07/02 03:50:21;;;;;;;1.33;0.90;;;;;;;;;;5091760;28;20044;-56
2021/07/02 03:52:47;;;;;;;2.22;1.00;;;;;;;;;;5094595;28;20044;-55
2021/07/02 03:55:14;;;;;;;0.70;0.70;;;;;;;;;;5093492;28;20101;-57
2021/07/02 03:57:41;;;;;;;2.58;0.70;;;;;;;;;;5091984;28;20036;-56
2021/07/02 04:00:08;;;;;;;0.70;0.70;;;;;;;;;;5086122;28;20044;-57
2021/07/02 04:02:35;;;;;;;0.70;0.70;;;;;;;;;;5086428;28;20084;-57
2021/07/02 04:05:03;;;;;;;0.80;0.77;;;;;;;;;;5093659;28;20036;-56
2021/07/02 04:07:29;;;;;;;2.65;0.70;;;;;;;;;;5091572;28;20515;-57
2021/07/02 04:09:56;;;;;;;0.80;0.80;;;;;;;;;;5089567;28;20064;-56
2021/07/02 04:12:23;;;;;;;0.73;0.60;;;;;;;;;;5064750;28;20036;-57
2021/07/02 04:14:50;;;;;;;0.70;0.70;;;;;;;;;;5093762;28;20084;-56
2021/07/02 04:17:17;;;;;;;1.98;0.80;;;;;;;;;;5092171;28;20032;-57
2021/07/02 04:19:44;;;;;;;1.58;0.70;;;;;;;;;;5091132;28;20044;-57
2021/07/02 04:22:11;;;;;;;2.58;0.80;;;;;;;;;;5091561;28;20118;-57
2021/07/02 04:24:38;;;;;;;1.50;0.70;;;;;;;;;;5093821;28;20043;-56
2021/07/02 04:27:14;;;;;;;1.40;0.70;;;;;;;;;;5091080;28;20496;-57
2021/07/02 04:29:41;;;;;;;1.73;0.80;;;;;;;;;;5091072;28;20048;-53
2021/07/02 04:32:08;;;;;;;1.52;0.70;;;;;;;;;;5075511;28;20070;-57
2021/07/02 04:34:35;;;;;;;0.60;0.60;;;;;;;;;;5091609;28;20429;-55
2021/07/02 04:37:02;;;;;;;1.00;0.70;;;;;;;;;;5077737;28;20098;-57
2021/07/02 04:39:33;;;;;;;1.05;0.60;;;;;;;;;;5088646;28;20078;-57
2021/07/02 04:42:00;;;;;;;2.10;0.75;;;;;;;;;;5094862;28;20102;-56
2021/07/02 04:44:27;;;;;;;0.75;0.70;;;;;;;;;;5093666;28;20043;-56
2021/07/02 04:46:53;;;;;;;0.98;0.70;;;;;;;;;;5092151;28;20044;-57
2021/07/02 04:49:20;;;;;;;2.58;0.70;;;;;;;;;;5092274;28;20028;-56
2021/07/02 04:51:48;;;;;;;0.80;0.80;;;;;;;;;;5088025;28;20045;-57
2021/07/02 04:54:14;;;;;;;1.75;0.95;;;;;;;;;;5076575;28;20061;-57
2021/07/02 04:56:46;;;;;;;1.85;0.73;;;;;;;;;;5092595;28;20044;-57
2021/07/02 04:59:17;;;;;;;1.00;0.70;;;;;;;;;;5085618;28;20043;-57
2021/07/02 05:01:44;;;;;;;1.60;0.70;;;;;;;;;;5073812;28;20481;-56
2021/07/02 05:04:11;;;;;;;1.75;0.70;;;;;;;;;;5089522;28;20463;-57
2021/07/02 05:06:38;;;;;;;1.30;0.60;;;;;;;;;;5081264;28;20056;-57
2021/07/02 05:09:05;;;;;;;0.60;0.60;;;;;;;;;;5093476;28;20082;-57
2021/07/02 05:11:33;;;;;;;0.70;0.70;;;;;;;;;;5089367;28;20040;-57
2021/07/02 05:14:00;;;;;;;0.80;0.60;;;;;;;;;;5091026;28;20127;-55
2021/07/02 05:16:26;;;;;;;0.85;0.70;;;;;;;;;;5068348;28;20111;-56
2021/07/02 05:18:53;;;;;;;4.75;1.23;;;;;;;;;;5081171;28;20097;-57
2021/07/02 05:21:20;;;;;;;1.42;0.70;;;;;;;;;;5082669;28;20095;-55
2021/07/02 05:23:47;;;;;;;3.30;0.70;;;;;;;;;;5088611;28;20072;-57
2021/07/02 05:26:14;;;;;;;2.70;0.90;;;;;;;;;;5089631;28;20037;-58
2021/07/02 05:28:41;;;;;;;0.65;0.65;;;;;;;;;;5093738;28;20071;-58
2021/07/02 05:31:08;;;;;;;1.75;0.60;;;;;;;;;;5091200;28;20454;-58
2021/07/02 05:33:34;;;;;;;2.45;0.90;;;;;;;;;;5091698;28;20052;-58
2021/07/02 05:36:01;;;;;;;1.27;0.70;;;;;;;;;;5090755;28;20020;-58
2021/07/02 05:38:28;;;;;;;0.60;0.60;;;;;;;;;;5090912;28;20062;-58
2021/07/02 05:40:55;;;;;;;1.45;0.70;;;;;;;;;;5092134;28;20036;-58
2021/07/02 05:43:23;;;;;;;1.77;0.70;;;;;;;;;;5092161;28;20073;-58
2021/07/02 05:45:49;;;;;;;2.92;0.70;;;;;;;;;;5079909;28;20056;-57
2021/07/02 05:48:18;;;;;;;1.10;0.90;;;;;;;;;;5085639;28;20480;-58
2021/07/02 05:50:46;;;;;;;0.77;0.70;;;;;;;;;;5075009;28;20093;-58
2021/07/02 05:53:13;;;;;;;3.25;0.80;;;;;;;;;;5092648;28;20036;-58
2021/07/02 05:55:40;;;;;;;2.35;1.10;;;;;;;;;;5091041;28;20127;-58
2021/07/02 05:58:07;;;;;;;1.45;0.70;;;;;;;;;;5079539;28;20048;-57
2021/07/02 06:00:36;;;;;;;0.80;0.80;;;;;;;;;;5089713;28;20038;-59
2021/07/02 06:03:02;;;;;;;2.15;0.60;;;;;;;;;;5072082;28;20052;-58
2021/07/02 06:05:30;;;;;;;2.55;0.70;;;;;;;;;;5091504;28;20109;-57
2021/07/02 06:07:57;;;;;;;1.63;0.70;;;;;;;;;;5088516;28;20048;-59
2021/07/02 06:10:24;;;;;;;1.98;0.73;;;;;;;;;;5090132;28;20426;-59
2021/07/02 06:12:51;;;;;;;0.68;0.68;;;;;;;;;;5092074;28;20094;-58
2021/07/02 06:15:20;;;;;;;2.15;0.70;;;;;;;;;;5090794;28;20059;-58
2021/07/02 06:17:47;;;;;;;4.35;0.63;;;;;;;;;;5078723;28;20028;-58
2021/07/02 06:20:15;;;;;;;2.08;0.70;;;;;;;;;;5086442;28;20044;-59
2021/07/02 06:22:42;;;;;;;0.80;0.80;;;;;;;;;;5089789;28;20052;-59
2021/07/02 06:25:09;;;;;;;0.68;0.60;;;;;;;;;;5082443;28;20048;-58
2021/07/02 06:27:36;;;;;;;5.15;0.60;;;;;;;;;;5084731;28;20077;-58
2021/07/02 06:30:04;;;;;;;0.70;0.60;;;;;;;;;;5073992;28;20043;-58
2021/07/02 06:32:31;;;;;;;2.47;0.60;;;;;;;;;;5088783;28;20067;-58
2021/07/02 06:34:58;;;;;;;2.38;0.60;;;;;;;;;;5089202;28;20127;-59
2021/07/02 06:37:24;;;;;;;0.60;0.60;;;;;;;;;;5091300;28;20040;-59
2021/07/02 06:39:51;;;;;;;3.67;0.60;;;;;;;;;;5084981;28;20119;-59
2021/07/02 06:42:18;;;;;;;3.10;0.70;;;;;;;;;;5072333;28;20123;-58
2021/07/02 06:44:45;;;;;;;1.15;0.60;;;;;;;;;;5090139;28;20044;-59
2021/07/02 06:47:11;;;;;;;2.15;0.60;;;;;;;;;;5087833;28;20036;-59
2021/07/02 06:49:39;;;;;;;0.55;0.55;;;;;;;;;;5091011;28;20132;-58
2021/07/02 06:52:07;;;;;;;1.50;0.60;;;;;;;;;;5088950;28;20484;-59
2021/07/02 06:54:35;;;;;;;3.80;0.80;;;;;;;;;;5088173;28;20036;-59
2021/07/02 06:57:07;;;;;;;3.22;0.60;;;;;;;;;;5090662;28;20058;-58
2021/07/02 06:59:37;;;;;;;1.13;0.60;;;;;;;;;;5083081;28;20040;-58
2021/07/02 07:02:04;;;;;;;0.77;0.50;;;;;;;;;;5078409;28;20048;-58
2021/07/02 07:04:35;;;;;;;1.30;0.40;;;;;;;;;;5086939;28;20032;-59
2021/07/02 07:07:02;;;;;;;0.60;0.50;;;;;;;;;;5089316;28;20652;-57
2021/07/02 07:09:30;;;;;;;3.80;0.60;;;;;;;;;;5090219;28;20115;-59
2021/07/02 07:11:57;;;;;;;0.90;0.70;;;;;;;;;;5090517;28;20121;-57
2021/07/02 07:14:24;;;;;;;2.55;0.50;;;;;;;;;;5078985;28;20035;-58
2021/07/02 07:16:51;;;;;;;0.70;0.50;;;;;;;;;;5089366;28;20071;-59
2021/07/02 07:19:19;;;;;;;0.90;0.50;;;;;;;;;;5087629;28;20479;-58
2021/07/02 07:21:45;;;;;;;0.90;0.90;;;;;;;;;;5089411;28;20064;-59
2021/07/02 07:24:12;;;;;;;4.20;0.60;;;;;;;;;;5089652;28;20484;-59
2021/07/02 07:26:39;;;;;;;0.80;0.50;;;;;;;;;;5088478;28;20047;-58
2021/07/02 07:29:06;;;;;;;7.22;0.50;;;;;;;;;;5091779;28;20031;-59
2021/07/02 07:31:32;;;;;;;0.85;0.85;;;;;;;;;;5092635;28;20052;-59
2021/07/02 07:34:00;;;;;;;1.02;0.50;;;;;;;;;;5089852;28;20048;-59
2021/07/02 07:36:28;;;;;;;2.08;0.60;;;;;;;;;;5086870;28;20048;-59
2021/07/02 07:38:55;;;;;;;0.50;0.50;;;;;;;;;;5088794;28;20531;-58
2021/07/02 07:41:23;;;;;;;2.28;0.50;;;;;;;;;;5084144;28;20510;-59
2021/07/02 07:43:50;;;;;;;2.08;0.40;;;;;;;;;;5076875;28;20035;-59
2021/07/02 07:46:17;;;;;;;1.02;0.73;;;;;;;;;;5082614;28;20071;-59
2021/07/02 07:48:44;;;;;;;1.40;0.40;;;;;;;;;;5081405;28;20094;-59
2021/07/02 07:53:47;;;;;;;0.60;0.50;;;;;;;;;;5069944;28;20499;-58
2021/07/02 07:56:13;;;;;;;1.00;0.45;;;;;;;;;;5088063;28;20058;-58
2021/07/02 07:58:40;;;;;;;3.17;0.95;;;;;;;;;;5086134;28;20484;-59
2021/07/02 08:01:09;;;;;;;1.75;0.35;;;;;;;;;;5088657;28;20044;-60
2021/07/02 08:03:35;;;;;;;2.70;0.55;;;;;;;;;;5079337;28;20127;-60
2021/07/02 08:06:03;;;;;;;3.42;0.40;;;;;;;;;;5090327;28;20127;-59
2021/07/02 08:08:29;;;;;;;1.38;0.40;;;;;;;;;;5087546;28;20044;-59
2021/07/02 08:10:56;;;;;;;0.70;0.40;;;;;;;;;;5088977;28;20079;-59
2021/07/02 08:13:27;;;;;;;0.52;0.30;;;;;;;;;;5083360;28;20032;-60
2021/07/02 08:15:55;;;;;;;1.02;0.40;;;;;;;;;;5080919;28;20036;-59
2021/07/02 08:18:21;;;;;;;0.63;0.40;;;;;;;;;;5089734;28;20063;-60
2021/07/02 08:20:48;;;;;;;2.65;0.57;;;;;;;;;;5084507;28;20040;-59
2021/07/02 08:23:15;;;;;;;1.15;0.40;;;;;;;;;;5071560;28;20483;-59
2021/07/02 08:25:42;;;;;;;1.52;0.50;;;;;;;;;;5082381;28;20127;-60
2021/07/02 08:30:54;;;;;;;3.00;0.50;;;;;;;;;;5089956;28;20032;-59
2021/07/02 08:33:21;;;;;;;0.80;0.40;;;;;;;;;;5091190;28;20040;-59
2021/07/02 08:35:48;;;;;;;0.50;0.40;;;;;;;;;;5075850;28;20056;-59
2021/07/02 08:38:15;;;;;;;1.00;0.40;;;;;;;;;;5093817;28;20048;-60
2021/07/02 08:40:42;;;;;;;1.33;0.40;;;;;;;;;;5091636;28;20535;-60
2021/07/02 08:43:09;;;;;;;2.38;0.40;;;;;;;;;;5077027;28;20041;-60
2021/07/02 08:45:37;;;;;;;0.70;0.35;;;;;;;;;;5090641;28;20047;-60
2021/07/02 08:48:05;;;;;;;1.50;0.40;;;;;;;;;;5082084;28;20457;-59
2021/07/02 08:50:32;;;;;;;0.30;0.30;;;;;;;;;;5093658;28;20384;-60
2021/07/02 08:52:59;;;;;;;3.22;0.40;;;;;;;;;;5092279;28;20028;-59
2021/07/02 08:55:26;;;;;;;0.88;0.30;;;;;;;;;;5075050;28;20112;-60
2021/07/02 08:57:53;;;;;;;0.77;0.50;;;;;;;;;;5091902;28;20047;-60
2021/07/02 09:00:20;;;;;;;2.78;0.40;;;;;;;;;;5091811;28;20071;-60
2021/07/02 09:02:47;;;;;;;1.52;0.40;;;;;;;;;;5092278;28;20376;-60
2021/07/02 09:05:45;;;;;;;1.95;0.40;;;;;;;;;;5091785;28;20126;-60
2021/07/02 09:08:15;;;;;;;0.43;0.40;;;;;;;;;;5075750;28;20048;-60
2021/07/02 09:10:43;;;;;;;0.65;0.32;;;;;;;;;;5093256;28;20483;-59
2021/07/02 09:13:11;;;;;;;0.40;0.40;;;;;;;;;;5089938;28;20404;-60
2021/07/02 09:15:47;;;;;;;0.30;0.30;;;;;;;;;;5087801;28;20033;-60
2021/07/02 09:18:16;;;;;;;1.00;0.30;;;;;;;;;;5091624;28;20032;-60
2021/07/02 09:20:44;;;;;;;0.40;0.30;;;;;;;;;;5090024;28;20067;-60
2021/07/02 09:23:14;;;;;;;3.70;0.40;;;;;;;;;;5078795;28;20047;-60
2021/07/02 09:25:49;;;;;;;0.77;0.32;;;;;;;;;;5086717;28;20074;-60
2021/07/02 09:28:21;;;;;;;2.75;0.30;;;;;;;;;;5089923;28;20115;-60
2021/07/02 09:30:52;;;;;;;1.40;0.30;;;;;;;;;;5093164;28;20372;-61
2021/07/02 09:33:19;;;;;;;0.93;0.30;;;;;;;;;;5083663;28;20036;-60
2021/07/02 09:35:49;;;;;;;1.40;0.35;;;;;;;;;;5073857;28;20093;-60
2021/07/02 09:38:17;;;;;;;0.30;0.30;;;;;;;;;;5090090;28;20430;-60
2021/07/02 09:40:45;;;;;;;0.90;0.32;;;;;;;;;;5091978;28;20492;-61
2021/07/02 09:43:13;;;;;;;1.38;0.35;;;;;;;;;;5092694;28;20114;-60
2021/07/02 09:45:43;;;;;;;2.38;0.30;;;;;;;;;;5089763;28;20063;-61
2021/07/02 09:48:11;;;;;;;1.38;0.30;;;;;;;;;;5074272;28;20040;-60
2021/07/02 09:50:41;;;;;;;2.10;0.30;;;;;;;;;;5093223;28;20115;-60
2021/07/02 09:53:11;;;;;;;2.75;0.30;;;;;;;;;;5089140;28;20491;-61
2021/07/02 09:55:45;;;;;;;2.40;0.30;;;;;;;;;;5090395;28;20040;-60
2021/07/02 09:58:12;;;;;;;1.75;0.30;;;;;;;;;;5087315;28;20043;-60
2021/07/02 10:00:40;;;;;;;0.85;0.40;;;;;;;;;;5084276;28;20067;-60
2021/07/02 10:03:07;;;;;;;0.70;0.30;;;;;;;;;;5091929;28;20059;-61
2021/07/02 10:05:44;;;;;;;1.00;0.65;;;;;;;;;;5090120;28;20122;-60
2021/07/02 10:08:11;;;;;;;0.30;0.30;;;;;;;;;;5088629;28;20117;-61
2021/07/02 10:10:38;;;;;;;0.30;0.30;;;;;;;;;;5085871;28;20066;-61
2021/07/02 10:13:05;;;;;;;2.60;0.30;;;;;;;;;;5088889;28;20036;-60
2021/07/02 10:15:34;;;;;;;0.98;0.40;;;;;;;;;;5090526;28;20056;-60
2021/07/02 10:18:02;;;;;;;1.17;0.30;;;;;;;;;;5088837;28;20051;-60
2021/07/02 10:20:30;;;;;;;1.70;0.30;;;;;;;;;;5088399;28;20484;-60
2021/07/02 10:22:58;;;;;;;1.65;0.30;;;;;;;;;;5088552;28;20047;-60
2021/07/02 10:25:26;;;;;;;0.40;0.30;;;;;;;;;;5088820;28;20048;-60
2021/07/02 10:27:53;;;;;;;0.30;0.30;;;;;;;;;;5089764;28;20044;-61
2021/07/02 10:30:20;;;;;;;1.80;0.30;;;;;;;;;;5091028;28;20032;-60
2021/07/02 10:32:53;;;;;;;1.38;0.30;;;;;;;;;;5088418;28;20073;-60
2021/07/02 10:35:20;;;;;;;4.18;0.30;;;;;;;;;;5087094;28;20491;-61
2021/07/02 10:37:48;;;;;;;2.03;0.30;;;;;;;;;;5089734;28;20040;-61
2021/07/02 10:40:21;;;;;;;1.75;0.30;;;;;;;;;;5099173;28;20044;-61
2021/07/02 10:43:21;;;;;;;1.83;0.40;;;;;;;;;;5087022;28;20060;-61
2021/07/02 10:46:06;;;;;;;0.22;0.20;;;;;;;;;;4998884;28;20054;-60
2021/07/02 10:48:51;;;;;;;0.88;0.30;;;;;;;;;;5000790;28;20054;-61
2021/07/02 10:51:35;;;;;;;0.50;0.30;;;;;;;;;;5003812;28;20046;-60
2021/07/02 10:54:16;;;;;;;1.40;0.30;;;;;;;;;;4998460;28;20046;-60
2021/07/02 10:56:58;;;;;;;0.60;0.30;;;;;;;;;;4998905;28;20124;-61
2021/07/02 10:59:36;;;;;;;0.45;0.30;;;;;;;;;;5006441;28;20050;-60
2021/07/02 11:02:08;;;;;;;0.32;0.20;;;;;;;;;;5006607;28;20655;-61
2021/07/02 11:04:35;;;;;;;1.10;0.30;;;;;;;;;;5008975;28;20596;-60
2021/07/02 11:07:03;;;;;;;0.60;0.30;;;;;;;;;;5008010;28;20172;-60
2021/07/02 11:09:50;;;;;;;1.65;0.30;;;;;;;;;;5007981;28;20077;-60
2021/07/02 11:12:24;;;;;;;1.73;0.30;;;;;;;;;;5002397;28;20065;-60
2021/07/02 11:14:51;;;;;;;1.10;0.20;;;;;;;;;;5005852;28;20046;-61
2021/07/02 11:17:25;;;;;;;0.95;0.30;;;;;;;;;;5002573;28;20041;-61
2021/07/02 11:20:07;;;;;;;1.50;0.63;;;;;;;;;;5007517;28;20434;-61
2021/07/02 11:22:35;;;;;;;3.38;0.30;;;;;;;;;;5071082;28;20056;-59
2021/07/02 11:25:11;;;;;;;0.40;0.30;;;;;;;;;;5090235;28;20140;-60
2021/07/02 11:30:24;;;;;;;1.85;0.30;;;;;;;;;;5088772;28;20027;-61
2021/07/02 11:32:53;;;;;;;2.65;0.95;;;;;;;;;;5086540;28;20036;-60
2021/07/02 11:35:20;;;;;;;0.68;0.20;;;;;;;;;;5087922;28;20484;-60
2021/07/02 11:38:11;;;;;;;1.17;0.30;;;;;;;;;;5090230;28;20468;-60
2021/07/02 11:40:48;;;;;;;1.10;0.30;;;;;;;;;;5090483;28;20047;-54
2021/07/02 11:43:29;;;;;;;0.25;0.20;;;;;;;;;;5086763;28;20118;-55
2021/07/02 11:45:59;;;;;;;2.25;0.30;;;;;;;;;;5053827;28;20063;-53
2021/07/02 11:48:27;;;;;;;1.70;0.32;;;;;;;;;;5085226;28;20066;-53
2021/07/02 11:50:59;;;;;;;2.15;0.30;;;;;;;;;;5077700;28;20453;-55
2021/07/02 11:53:25;;;;;;;0.37;0.30;;;;;;;;;;5089667;28;20040;-53
2021/07/02 11:56:06;;;;;;;1.38;0.30;;;;;;;;;;5087677;28;20032;-54
2021/07/02 11:58:36;;;;;;;1.48;0.47;;;;;;;;;;5085691;28;20044;-54
2021/07/02 12:01:04;;;;;;;1.75;0.30;;;;;;;;;;5082380;28;20438;-53
2021/07/02 12:03:31;;;;;;;3.80;0.40;;;;;;;;;;5089121;28;20043;-54
2021/07/02 12:05:59;;;;;;;0.73;0.30;;;;;;;;;;5090822;28;20048;-54
2021/07/02 12:08:27;;;;;;;1.77;0.30;;;;;;;;;;5092846;28;20395;-55
2021/07/02 12:10:56;;;;;;;0.73;0.30;;;;;;;;;;5092229;28;20660;-54
2021/07/02 12:13:23;;;;;;;0.60;0.30;;;;;;;;;;5092555;28;20157;-53
2021/07/02 12:15:59;;;;;;;0.77;0.30;;;;;;;;;;5093118;28;20429;-54
2021/07/02 12:18:26;;;;;;;0.82;0.30;;;;;;;;;;5086054;28;20123;-55
2021/07/02 12:21:00;;;;;;;1.65;0.30;;;;;;;;;;5094096;28;20075;-54
2021/07/02 12:23:30;;;;;;;0.63;0.30;;;;;;;;;;5091176;28;20044;-54
2021/07/02 12:26:07;;;;;;;1.23;0.73;;;;;;;;;;5094554;28;20119;-54
2021/07/02 12:28:55;;;;;;;1.60;0.40;;;;;;;;;;5094083;28;20036;-55
2021/07/02 12:31:22;;;;;;;1.67;0.38;;;;;;;;;;5091108;28;20107;-54
2021/07/02 12:33:49;;;;;;;0.73;0.30;;;;;;;;;;5092521;28;20411;-52
2021/07/02 12:36:16;;;;;;;1.55;0.30;;;;;;;;;;5086860;28;20036;-55
2021/07/02 12:38:57;;;;;;;1.08;0.40;;;;;;;;;;5100080;28;20498;-55
2021/07/02 12:41:24;;;;;;;0.70;0.30;;;;;;;;;;5093376;28;20101;-54
2021/07/02 12:43:51;;;;;;;1.17;0.30;;;;;;;;;;5091889;28;20459;-54
2021/07/02 12:46:18;;;;;;;1.30;0.40;;;;;;;;;;5093205;28;20031;-54
2021/07/02 12:48:44;;;;;;;1.25;0.30;;;;;;;;;;5091189;28;20047;-54
2021/07/02 12:51:11;;;;;;;0.65;0.38;;;;;;;;;;5078172;28;20124;-54
2021/07/02 12:56:23;;;;;;;2.83;0.40;;;;;;;;;;5092932;28;20085;-53
2021/07/02 12:58:50;;;;;;;2.47;0.85;;;;;;;;;;5091565;28;20044;-54
2021/07/02 13:01:17;;;;;;;2.50;0.40;;;;;;;;;;5094106;28;20070;-54
2021/07/02 13:03:44;;;;;;;0.40;0.30;;;;;;;;;;5089610;28;20070;-55
2021/07/02 13:06:15;;;;;;;0.50;0.30;;;;;;;;;;5092730;28;20047;-55
2021/07/02 13:08:42;;;;;;;3.05;0.60;;;;;;;;;;5089028;28;20040;-54
2021/07/02 13:11:19;;;;;;;1.85;0.30;;;;;;;;;;5088847;28;20067;-54
2021/07/02 13:13:45;;;;;;;0.82;0.40;;;;;;;;;;5093285;28;20051;-52
2021/07/02 13:16:12;;;;;;;0.68;0.40;;;;;;;;;;5088755;28;20044;-52
2021/07/02 13:18:40;;;;;;;1.42;0.30;;;;;;;;;;5089797;28;20396;-52
2021/07/02 13:21:07;;;;;;;0.75;0.40;;;;;;;;;;5086224;28;20033;-53
2021/07/02 13:23:36;;;;;;;1.80;0.50;;;;;;;;;;5078134;28;20038;-53
2021/07/02 13:26:03;;;;;;;0.63;0.40;;;;;;;;;;5092588;28;20036;-53
2021/07/02 13:28:31;;;;;;;2.13;0.40;;;;;;;;;;5091485;28;20437;-53
2021/07/02 13:30:57;;;;;;;0.65;0.65;;;;;;;;;;5091225;28;20068;-54
2021/07/02 13:33:24;;;;;;;0.82;0.40;;;;;;;;;;5090220;28;20051;-53
2021/07/02 13:35:51;;;;;;;1.13;0.30;;;;;;;;;;5091563;28;20507;-54
2021/07/02 13:38:19;;;;;;;0.40;0.32;;;;;;;;;;5091562;28;20468;-54
2021/07/02 13:40:47;;;;;;;0.47;0.38;;;;;;;;;;5093225;28;20044;-53
2021/07/02 13:43:19;;;;;;;2.15;0.40;;;;;;;;;;5073043;28;20467;-54
2021/07/02 13:46:02;;;;;;;0.68;0.35;;;;;;;;;;5091143;28;20051;-52
2021/07/02 13:48:29;;;;;;;0.60;0.30;;;;;;;;;;5089905;28;20032;-54
2021/07/02 13:50:56;;;;;;;0.55;0.40;;;;;;;;;;5077281;28;20468;-54
2021/07/02 13:53:23;;;;;;;1.27;0.40;;;;;;;;;;5089404;28;20040;-54
2021/07/02 13:55:51;;;;;;;2.95;0.60;;;;;;;;;;5088831;28;20028;-53
2021/07/02 13:58:18;;;;;;;0.68;0.40;;;;;;;;;;5104984;28;20387;-54
2021/07/02 14:00:46;;;;;;;0.60;0.40;;;;;;;;;;5078638;28;20115;-54
2021/07/02 14:03:13;;;;;;;1.90;0.40;;;;;;;;;;5080658;28;20416;-54
2021/07/02 14:05:40;;;;;;;0.80;0.40;;;;;;;;;;5092084;28;20060;-52
2021/07/02 14:08:08;;;;;;;3.97;1.50;;;;;;;;;;5090478;28;20206;-52
2021/07/02 14:10:35;;;;;;;0.40;0.40;;;;;;;;;;5089322;28;20071;-52
2021/07/02 14:13:03;;;;;;;2.05;0.40;;;;;;;;;;5089737;28;20063;-52
2021/07/02 14:15:30;;;;;;;0.35;0.30;;;;;;;;;;5089320;28;20028;-54
2021/07/02 14:17:57;;;;;;;1.00;0.40;;;;;;;;;;5091861;28;20081;-53
2021/07/02 14:20:24;;;;;;;0.95;0.40;;;;;;;;;;5088289;28;20449;-54
2021/07/02 14:22:50;;;;;;;0.52;0.40;;;;;;;;;;5077952;28;20079;-54
2021/07/02 14:25:20;;;;;;;2.05;0.57;;;;;;;;;;5088580;28;20105;-53
2021/07/02 14:27:47;;;;;;;2.17;0.30;;;;;;;;;;5103937;28;20098;-54
2021/07/02 14:30:14;;;;;;;1.58;0.30;;;;;;;;;;5084002;28;20076;-54
2021/07/02 14:32:42;;;;;;;0.38;0.30;;;;;;;;;;5090656;28;20476;-53
2021/07/02 14:35:10;;;;;;;1.42;0.40;;;;;;;;;;5090586;28;20047;-54
2021/07/02 14:37:37;;;;;;;0.30;0.30;;;;;;;;;;5090121;28;20078;-53
2021/07/02 14:40:04;;;;;;;1.30;0.30;;;;;;;;;;5089889;28;20043;-53
2021/07/02 14:42:31;;;;;;;2.67;0.30;;;;;;;;;;5092630;28;20123;-55
2021/07/02 14:44:58;;;;;;;0.95;0.40;;;;;;;;;;5090456;28;20044;-54
2021/07/02 14:47:25;;;;;;;1.05;0.38;;;;;;;;;;5084534;28;20500;-53
2021/07/02 14:49:52;;;;;;;0.57;0.40;;;;;;;;;;5089908;28;20145;-53
2021/07/02 14:52:18;;;;;;;1.30;0.40;;;;;;;;;;5075653;28;20040;-54
2021/07/02 14:54:45;;;;;;;0.70;0.35;;;;;;;;;;5091266;28;20059;-54
2021/07/02 14:57:12;;;;;;;0.75;0.30;;;;;;;;;;5090288;28;20032;-53
2021/07/02 14:59:38;;;;;;;0.80;0.40;;;;;;;;;;5090426;28;20048;-54